sensor_id;sensor_type;location;lat;lon;timestamp;pressure;altitude;pressure_sealevel;temperature;humidity
44297;BME280;51842;47.450;8.654;2024-03-17T00:01:03;96156.97;;;5.28;100.00
44297;BME280;51842;47.450;8.654;2024-03-17T00:03:31;96155.28;;;5.34;100.00
44297;BME280;51842;47.450;8.654;2024-03-17T00:05:59;96163.94;;;5.41;100.00
44297;BME280;51842;47.450;8.654;2024-03-17T00:08:26;96155.38;;;5.46;100.00
44297;BME280;51842;47.450;8.654;2024-03-17T00:10:55;96167.94;;;5.50;100.00
44297;BME280;51842;47.450;8.654;2024-03-17T00:13:23;96171.53;;;5.56;100.00
44297;BME280;51842;47.450;8.654;2024-03-17T00:15:50;96174.19;;;5.56;100.00
44297;BME280;51842;47.450;8.654;2024-03-17T00:18:17;96167.00;;;5.63;100.00
44297;BME280;51842;47.450;8.654;2024-03-17T00:20:43;96176.13;;;5.67;100.00
44297;BME280;51842;47.450;8.654;2024-03-17T00:23:10;96166.50;;;5.73;100.00
44297;BME280;51842;47.450;8.654;2024-03-17T00:25:38;96169.66;;;5.82;100.00
44297;BME280;51842;47.450;8.654;2024-03-17T00:28:05;96167.00;;;5.82;100.00
44297;BME280;51842;47.450;8.654;2024-03-17T00:30:31;96168.41;;;5.84;100.00
44297;BME280;51842;47.450;8.654;2024-03-17T00:32:58;96165.53;;;5.86;100.00
44297;BME280;51842;47.450;8.654;2024-03-17T00:35:26;96153.28;;;5.91;100.00
44297;BME280;51842;47.450;8.654;2024-03-17T00:37:52;96142.09;;;5.96;100.00
44297;BME280;51842;47.450;8.654;2024-03-17T00:40:20;96142.44;;;5.99;100.00
44297;BME280;51842;47.450;8.654;2024-03-17T00:42:47;96135.06;;;6.01;100.00
44297;BME280;51842;47.450;8.654;2024-03-17T00:45:13;96135.31;;;6.00;100.00
44297;BME280;51842;47.450;8.654;2024-03-17T00:47:39;96135.06;;;6.01;100.00
44297;BME280;51842;47.450;8.654;2024-03-17T00:50:06;96130.63;;;6.02;100.00
44297;BME280;51842;47.450;8.654;2024-03-17T00:52:34;96132.81;;;6.05;100.00
44297;BME280;51842;47.450;8.654;2024-03-17T00:55:01;96122.09;;;6.00;100.00
44297;BME280;51842;47.450;8.654;2024-03-17T00:57:28;96125.69;;;6.06;100.00
44297;BME280;51842;47.450;8.654;2024-03-17T00:59:54;96124.44;;;6.08;100.00
44297;BME280;51842;47.450;8.654;2024-03-17T01:02:21;96122.81;;;6.07;100.00
44297;BME280;51842;47.450;8.654;2024-03-17T01:04:47;96112.91;;;6.02;100.00
44297;BME280;51842;47.450;8.654;2024-03-17T01:07:13;96116.50;;;6.08;100.00
44297;BME280;51842;47.450;8.654;2024-03-17T01:09:39;96117.06;;;6.10;100.00
44297;BME280;51842;47.450;8.654;2024-03-17T01:12:05;96123.03;;;6.06;100.00
44297;BME280;51842;47.450;8.654;2024-03-17T01:14:32;96110.97;;;6.10;100.00
44297;BME280;51842;47.450;8.654;2024-03-17T01:17:02;96113.97;;;6.13;100.00
44297;BME280;51842;47.450;8.654;2024-03-17T01:19:32;96109.81;;;6.06;100.00
44297;BME280;51842;47.450;8.654;2024-03-17T01:22:00;96101.00;;;6.12;100.00
44297;BME280;51842;47.450;8.654;2024-03-17T01:24:26;96101.44;;;6.09;100.00
44297;BME280;51842;47.450;8.654;2024-03-17T01:26:58;96088.22;;;6.09;100.00
44297;BME280;51842;47.450;8.654;2024-03-17T01:29:25;96095.34;;;6.08;100.00
44297;BME280;51842;47.450;8.654;2024-03-17T01:31:51;96094.41;;;6.02;100.00
44297;BME280;51842;47.450;8.654;2024-03-17T01:34:19;96085.06;;;6.00;100.00
44297;BME280;51842;47.450;8.654;2024-03-17T01:36:45;96078.38;;;5.97;100.00
44297;BME280;51842;47.450;8.654;2024-03-17T01:39:11;96083.66;;;5.97;100.00
44297;BME280;51842;47.450;8.654;2024-03-17T01:41:37;96075.13;;;5.95;100.00
44297;BME280;51842;47.450;8.654;2024-03-17T01:44:03;96076.84;;;5.90;100.00
44297;BME280;51842;47.450;8.654;2024-03-17T01:46:29;96070.16;;;5.87;100.00
44297;BME280;51842;47.450;8.654;2024-03-17T01:48:55;96067.72;;;5.86;100.00
44297;BME280;51842;47.450;8.654;2024-03-17T01:51:22;96064.06;;;5.87;100.00
44297;BME280;51842;47.450;8.654;2024-03-17T01:53:49;96062.66;;;5.84;100.00
44297;BME280;51842;47.450;8.654;2024-03-17T01:56:17;96060.22;;;5.83;100.00
44297;BME280;51842;47.450;8.654;2024-03-17T01:58:45;96058.41;;;5.83;100.00
44297;BME280;51842;47.450;8.654;2024-03-17T02:01:12;96051.13;;;5.78;100.00
44297;BME280;51842;47.450;8.654;2024-03-17T02:03:42;96058.47;;;5.76;100.00
44297;BME280;51842;47.450;8.654;2024-03-17T02:06:08;96054.00;;;5.77;100.00
44297;BME280;51842;47.450;8.654;2024-03-17T02:11:32;96051.56;;;5.75;100.00
44297;BME280;51842;47.450;8.654;2024-03-17T02:14:00;96044.25;;;5.77;100.00
44297;BME280;51842;47.450;8.654;2024-03-17T02:16:29;96046.16;;;5.70;100.00
44297;BME280;51842;47.450;8.654;2024-03-17T02:18:56;96046.53;;;5.74;100.00
44297;BME280;51842;47.450;8.654;2024-03-17T02:21:24;96041.09;;;5.69;100.00
44297;BME280;51842;47.450;8.654;2024-03-17T02:23:51;96037.19;;;5.71;100.00
44297;BME280;51842;47.450;8.654;2024-03-17T02:26:17;96028.81;;;5.74;100.00
44297;BME280;51842;47.450;8.654;2024-03-17T02:28:47;96042.78;;;5.63;100.00
44297;BME280;51842;47.450;8.654;2024-03-17T02:31:16;96037.47;;;5.63;100.00
44297;BME280;51842;47.450;8.654;2024-03-17T02:33:44;96035.44;;;5.65;100.00
44297;BME280;51842;47.450;8.654;2024-03-17T02:36:12;96034.84;;;5.63;100.00
44297;BME280;51842;47.450;8.654;2024-03-17T02:38:40;96026.91;;;5.63;100.00
44297;BME280;51842;47.450;8.654;2024-03-17T02:41:25;96028.75;;;5.63;100.00
44297;BME280;51842;47.450;8.654;2024-03-17T02:43:51;96029.56;;;5.63;100.00
44297;BME280;51842;47.450;8.654;2024-03-17T02:46:19;96033.25;;;5.62;100.00
44297;BME280;51842;47.450;8.654;2024-03-17T02:48:52;96020.66;;;5.57;100.00
44297;BME280;51842;47.450;8.654;2024-03-17T02:51:22;96019.75;;;5.52;100.00
44297;BME280;51842;47.450;8.654;2024-03-17T02:53:49;96020.75;;;5.51;100.00
44297;BME280;51842;47.450;8.654;2024-03-17T02:56:17;96017.19;;;5.45;100.00
44297;BME280;51842;47.450;8.654;2024-03-17T02:58:46;96019.44;;;5.42;100.00
44297;BME280;51842;47.450;8.654;2024-03-17T03:01:13;96018.78;;;5.28;100.00
44297;BME280;51842;47.450;8.654;2024-03-17T03:03:41;96018.00;;;5.27;100.00
44297;BME280;51842;47.450;8.654;2024-03-17T03:06:06;96012.78;;;5.21;100.00
44297;BME280;51842;47.450;8.654;2024-03-17T03:08:41;96009.47;;;5.07;100.00
44297;BME280;51842;47.450;8.654;2024-03-17T03:11:11;96005.28;;;4.99;100.00
44297;BME280;51842;47.450;8.654;2024-03-17T03:13:42;95999.03;;;4.94;100.00
44297;BME280;51842;47.450;8.654;2024-03-17T03:16:14;95994.03;;;4.85;100.00
44297;BME280;51842;47.450;8.654;2024-03-17T03:18:41;95998.16;;;4.81;100.00
44297;BME280;51842;47.450;8.654;2024-03-17T03:21:09;95997.19;;;4.76;100.00
44297;BME280;51842;47.450;8.654;2024-03-17T03:23:35;96003.31;;;4.70;100.00
44297;BME280;51842;47.450;8.654;2024-03-17T03:26:03;96003.63;;;4.61;100.00
44297;BME280;51842;47.450;8.654;2024-03-17T03:28:32;95997.38;;;4.56;100.00
44297;BME280;51842;47.450;8.654;2024-03-17T03:31:01;95990.38;;;4.43;100.00
44297;BME280;51842;47.450;8.654;2024-03-17T03:33:28;95990.38;;;4.43;100.00
44297;BME280;51842;47.450;8.654;2024-03-17T03:35:54;95995.47;;;4.38;100.00
44297;BME280;51842;47.450;8.654;2024-03-17T03:38:22;96002.63;;;4.31;100.00
44297;BME280;51842;47.450;8.654;2024-03-17T03:40:49;96009.38;;;4.27;100.00
44297;BME280;51842;47.450;8.654;2024-03-17T03:43:15;96005.16;;;4.19;100.00
44297;BME280;51842;47.450;8.654;2024-03-17T03:45:42;96002.00;;;4.04;100.00
44297;BME280;51842;47.450;8.654;2024-03-17T03:48:08;95994.53;;;4.01;100.00
44297;BME280;51842;47.450;8.654;2024-03-17T03:50:35;95994.38;;;3.96;100.00
44297;BME280;51842;47.450;8.654;2024-03-17T03:53:01;95994.78;;;3.92;100.00
44297;BME280;51842;47.450;8.654;2024-03-17T03:55:27;95994.22;;;3.84;100.00
44297;BME280;51842;47.450;8.654;2024-03-17T03:57:52;96002.19;;;3.77;100.00
44297;BME280;51842;47.450;8.654;2024-03-17T04:00:22;96003.41;;;3.75;100.00
44297;BME280;51842;47.450;8.654;2024-03-17T04:02:52;95998.16;;;3.68;100.00
44297;BME280;51842;47.450;8.654;2024-03-17T04:05:19;95994.94;;;3.66;100.00
44297;BME280;51842;47.450;8.654;2024-03-17T04:07:47;95997.19;;;3.62;100.00
44297;BME280;51842;47.450;8.654;2024-03-17T04:10:15;96000.28;;;3.53;100.00
44297;BME280;51842;47.450;8.654;2024-03-17T04:12:42;95999.09;;;3.48;100.00
44297;BME280;51842;47.450;8.654;2024-03-17T04:15:09;95998.47;;;3.46;100.00
44297;BME280;51842;47.450;8.654;2024-03-17T04:17:38;95999.72;;;3.37;100.00
44297;BME280;51842;47.450;8.654;2024-03-17T04:20:06;95999.34;;;3.34;100.00
44297;BME280;51842;47.450;8.654;2024-03-17T04:22:34;96002.78;;;3.34;100.00
44297;BME280;51842;47.450;8.654;2024-03-17T04:25:01;96006.22;;;3.35;100.00
44297;BME280;51842;47.450;8.654;2024-03-17T04:27:27;95994.88;;;3.34;100.00
44297;BME280;51842;47.450;8.654;2024-03-17T04:29:57;95995.50;;;3.30;100.00
44297;BME280;51842;47.450;8.654;2024-03-17T04:32:24;95990.47;;;3.21;100.00
44297;BME280;51842;47.450;8.654;2024-03-17T04:34:50;95993.09;;;3.21;100.00
44297;BME280;51842;47.450;8.654;2024-03-17T04:37:17;95990.69;;;3.20;100.00
44297;BME280;51842;47.450;8.654;2024-03-17T04:39:45;95987.63;;;3.16;100.00
44297;BME280;51842;47.450;8.654;2024-03-17T04:42:17;95994.34;;;3.12;100.00
44297;BME280;51842;47.450;8.654;2024-03-17T04:44:46;95983.44;;;3.09;100.00
44297;BME280;51842;47.450;8.654;2024-03-17T04:47:13;95983.19;;;3.10;100.00
44297;BME280;51842;47.450;8.654;2024-03-17T04:49:44;95995.56;;;3.10;100.00
44297;BME280;51842;47.450;8.654;2024-03-17T04:52:12;95990.28;;;3.10;100.00
44297;BME280;51842;47.450;8.654;2024-03-17T04:54:39;96000.81;;;3.10;100.00
44297;BME280;51842;47.450;8.654;2024-03-17T04:57:07;95993.16;;;3.08;100.00
44297;BME280;51842;47.450;8.654;2024-03-17T04:59:35;95998.22;;;3.03;100.00
44297;BME280;51842;47.450;8.654;2024-03-17T05:02:01;96003.09;;;2.99;100.00
44297;BME280;51842;47.450;8.654;2024-03-17T05:04:29;95994.38;;;2.99;100.00
44297;BME280;51842;47.450;8.654;2024-03-17T05:06:54;96002.06;;;3.00;100.00
44297;BME280;51842;47.450;8.654;2024-03-17T05:09:20;96003.31;;;2.98;100.00
44297;BME280;51842;47.450;8.654;2024-03-17T05:11:47;96002.47;;;2.97;100.00
44297;BME280;51842;47.450;8.654;2024-03-17T05:14:13;95995.00;;;2.94;100.00
44297;BME280;51842;47.450;8.654;2024-03-17T05:16:39;95996.25;;;2.92;100.00
44297;BME280;51842;47.450;8.654;2024-03-17T05:19:05;96001.91;;;2.89;100.00
44297;BME280;51842;47.450;8.654;2024-03-17T05:21:32;95999.69;;;2.86;100.00
44297;BME280;51842;47.450;8.654;2024-03-17T05:24:01;95997.06;;;2.86;100.00
44297;BME280;51842;47.450;8.654;2024-03-17T05:26:27;95995.63;;;2.90;100.00
44297;BME280;51842;47.450;8.654;2024-03-17T05:28:54;95990.97;;;2.92;100.00
44297;BME280;51842;47.450;8.654;2024-03-17T05:31:21;95992.59;;;2.93;100.00
44297;BME280;51842;47.450;8.654;2024-03-17T05:33:48;95989.16;;;2.92;100.00
44297;BME280;51842;47.450;8.654;2024-03-17T05:36:14;95994.19;;;2.94;100.00
44297;BME280;51842;47.450;8.654;2024-03-17T05:38:40;95991.38;;;2.95;100.00
44297;BME280;51842;47.450;8.654;2024-03-17T05:41:09;95997.22;;;2.97;100.00
44297;BME280;51842;47.450;8.654;2024-03-17T05:43:37;95997.22;;;2.97;100.00
44297;BME280;51842;47.450;8.654;2024-03-17T05:46:10;96004.31;;;2.97;100.00
44297;BME280;51842;47.450;8.654;2024-03-17T05:48:39;96010.38;;;2.97;100.00
44297;BME280;51842;47.450;8.654;2024-03-17T05:51:11;96008.97;;;2.95;100.00
44297;BME280;51842;47.450;8.654;2024-03-17T05:53:39;96006.13;;;2.96;100.00
44297;BME280;51842;47.450;8.654;2024-03-17T05:56:12;96001.91;;;2.95;100.00
44297;BME280;51842;47.450;8.654;2024-03-17T05:58:39;96007.31;;;3.00;100.00
44297;BME280;51842;47.450;8.654;2024-03-17T06:01:06;96007.53;;;3.06;100.00
44297;BME280;51842;47.450;8.654;2024-03-17T06:03:37;96009.13;;;3.13;100.00
44297;BME280;51842;47.450;8.654;2024-03-17T06:06:05;96006.50;;;3.20;100.00
44297;BME280;51842;47.450;8.654;2024-03-17T06:08:38;96016.78;;;3.28;100.00
44297;BME280;51842;47.450;8.654;2024-03-17T06:11:05;96014.72;;;3.37;100.00
44297;BME280;51842;47.450;8.654;2024-03-17T06:13:31;96010.44;;;3.42;100.00
44297;BME280;51842;47.450;8.654;2024-03-17T06:15:57;96017.28;;;3.50;100.00
44297;BME280;51842;47.450;8.654;2024-03-17T06:18:27;96021.31;;;3.59;100.00
44297;BME280;51842;47.450;8.654;2024-03-17T06:20:54;96026.13;;;3.69;100.00
44297;BME280;51842;47.450;8.654;2024-03-17T06:23:21;96020.63;;;3.77;100.00
44297;BME280;51842;47.450;8.654;2024-03-17T06:25:49;96028.06;;;3.87;100.00
44297;BME280;51842;47.450;8.654;2024-03-17T06:28:17;96021.72;;;3.94;100.00
44297;BME280;51842;47.450;8.654;2024-03-17T06:30:45;96022.09;;;4.05;100.00
44297;BME280;51842;47.450;8.654;2024-03-17T06:33:17;96026.66;;;4.16;100.00
44297;BME280;51842;47.450;8.654;2024-03-17T06:35:47;96024.78;;;4.30;100.00
44297;BME280;51842;47.450;8.654;2024-03-17T06:38:14;96023.88;;;4.43;100.00
44297;BME280;51842;47.450;8.654;2024-03-17T06:40:41;96025.34;;;4.57;100.00
44297;BME280;51842;47.450;8.654;2024-03-17T06:43:07;96024.22;;;4.71;100.00
44297;BME280;51842;47.450;8.654;2024-03-17T06:45:33;96019.44;;;4.86;100.00
44297;BME280;51842;47.450;8.654;2024-03-17T06:48:00;96015.63;;;5.01;100.00
44297;BME280;51842;47.450;8.654;2024-03-17T06:50:26;96014.22;;;5.17;100.00
44297;BME280;51842;47.450;8.654;2024-03-17T06:52:52;96020.75;;;5.32;100.00
44297;BME280;51842;47.450;8.654;2024-03-17T06:55:18;96019.59;;;5.47;100.00
44297;BME280;51842;47.450;8.654;2024-03-17T06:57:47;96015.97;;;5.60;100.00
44297;BME280;51842;47.450;8.654;2024-03-17T07:00:14;96014.44;;;5.70;100.00
44297;BME280;51842;47.450;8.654;2024-03-17T07:02:42;96012.63;;;5.83;100.00
44297;BME280;51842;47.450;8.654;2024-03-17T07:05:12;96017.78;;;5.96;100.00
44297;BME280;51842;47.450;8.654;2024-03-17T07:07:44;96020.25;;;6.09;100.00
44297;BME280;51842;47.450;8.654;2024-03-17T07:10:12;96015.78;;;6.21;100.00
44297;BME280;51842;47.450;8.654;2024-03-17T07:12:42;96021.94;;;6.34;100.00
44297;BME280;51842;47.450;8.654;2024-03-17T07:15:08;96017.47;;;6.46;100.00
44297;BME280;51842;47.450;8.654;2024-03-17T07:17:35;96010.56;;;6.57;100.00
44297;BME280;51842;47.450;8.654;2024-03-17T07:20:01;96010.00;;;6.66;100.00
44297;BME280;51842;47.450;8.654;2024-03-17T07:22:29;96007.38;;;6.78;100.00
44297;BME280;51842;47.450;8.654;2024-03-17T07:24:55;96011.03;;;6.89;100.00
44297;BME280;51842;47.450;8.654;2024-03-17T07:27:29;96007.59;;;7.00;100.00
44297;BME280;51842;47.450;8.654;2024-03-17T07:29:55;96016.91;;;7.14;100.00
44297;BME280;51842;47.450;8.654;2024-03-17T07:32:21;96012.38;;;7.27;100.00
44297;BME280;51842;47.450;8.654;2024-03-17T07:34:49;96008.94;;;7.38;100.00
44297;BME280;51842;47.450;8.654;2024-03-17T07:37:16;96020.19;;;7.45;100.00
44297;BME280;51842;47.450;8.654;2024-03-17T07:39:42;96016.41;;;7.53;100.00
44297;BME280;51842;47.450;8.654;2024-03-17T07:42:07;96028.72;;;7.59;100.00
44297;BME280;51842;47.450;8.654;2024-03-17T07:44:33;96026.69;;;7.78;100.00
44297;BME280;51842;47.450;8.654;2024-03-17T07:47:04;96036.09;;;7.97;100.00
44297;BME280;51842;47.450;8.654;2024-03-17T07:49:30;96031.88;;;8.13;100.00
44297;BME280;51842;47.450;8.654;2024-03-17T07:51:57;96031.81;;;8.25;100.00
44297;BME280;51842;47.450;8.654;2024-03-17T07:54:26;96019.72;;;8.46;100.00
44297;BME280;51842;47.450;8.654;2024-03-17T07:56:53;96019.00;;;8.50;100.00
44297;BME280;51842;47.450;8.654;2024-03-17T07:59:19;96021.34;;;8.64;100.00
44297;BME280;51842;47.450;8.654;2024-03-17T08:01:45;96018.28;;;8.72;100.00
44297;BME280;51842;47.450;8.654;2024-03-17T08:04:12;96028.59;;;8.85;100.00
44297;BME280;51842;47.450;8.654;2024-03-17T08:06:41;96028.06;;;9.05;100.00
44297;BME280;51842;47.450;8.654;2024-03-17T08:09:10;96021.94;;;9.21;100.00
44297;BME280;51842;47.450;8.654;2024-03-17T08:11:38;96018.63;;;9.31;100.00
44297;BME280;51842;47.450;8.654;2024-03-17T08:14:04;96018.75;;;9.41;100.00
44297;BME280;51842;47.450;8.654;2024-03-17T08:16:31;96013.38;;;9.58;100.00
44297;BME280;51842;47.450;8.654;2024-03-17T08:18:57;96016.09;;;9.85;100.00
44297;BME280;51842;47.450;8.654;2024-03-17T08:21:23;96010.53;;;10.14;100.00
44297;BME280;51842;47.450;8.654;2024-03-17T08:23:50;96001.81;;;10.46;100.00
44297;BME280;51842;47.450;8.654;2024-03-17T08:26:16;96006.31;;;10.77;100.00
44297;BME280;51842;47.450;8.654;2024-03-17T08:28:42;96000.13;;;11.04;99.48
44297;BME280;51842;47.450;8.654;2024-03-17T08:31:07;96009.25;;;11.13;91.04
44297;BME280;51842;47.450;8.654;2024-03-17T08:33:33;96012.84;;;11.39;91.93
44297;BME280;51842;47.450;8.654;2024-03-17T08:36:06;96004.72;;;11.66;89.91
44297;BME280;51842;47.450;8.654;2024-03-17T08:38:37;96002.41;;;11.90;85.83
44297;BME280;51842;47.450;8.654;2024-03-17T08:41:10;96003.56;;;12.15;85.00
44297;BME280;51842;47.450;8.654;2024-03-17T08:43:38;96002.78;;;12.30;82.75
44297;BME280;51842;47.450;8.654;2024-03-17T08:46:07;96004.69;;;12.49;81.17
44297;BME280;51842;47.450;8.654;2024-03-17T08:48:37;96005.25;;;12.67;80.14
44297;BME280;51842;47.450;8.654;2024-03-17T08:51:06;96003.38;;;12.72;75.24
44297;BME280;51842;47.450;8.654;2024-03-17T08:53:33;96014.88;;;12.88;76.34
44297;BME280;51842;47.450;8.654;2024-03-17T08:56:02;96013.50;;;12.91;76.27
44297;BME280;51842;47.450;8.654;2024-03-17T08:58:28;96005.75;;;13.00;79.45
44297;BME280;51842;47.450;8.654;2024-03-17T09:00:54;96008.69;;;13.08;76.56
44297;BME280;51842;47.450;8.654;2024-03-17T09:03:22;96010.28;;;13.19;76.77
44297;BME280;51842;47.450;8.654;2024-03-17T09:05:48;96015.63;;;13.25;76.09
44297;BME280;51842;47.450;8.654;2024-03-17T09:08:22;96015.88;;;13.28;77.21
44297;BME280;51842;47.450;8.654;2024-03-17T09:10:52;96019.31;;;13.54;80.84
44297;BME280;51842;47.450;8.654;2024-03-17T09:13:24;96013.63;;;13.71;76.39
44297;BME280;51842;47.450;8.654;2024-03-17T09:16:00;96018.13;;;13.86;76.47
44297;BME280;51842;47.450;8.654;2024-03-17T09:18:31;96017.03;;;13.92;73.59
44297;BME280;51842;47.450;8.654;2024-03-17T09:21:07;96017.53;;;13.99;75.93
44297;BME280;51842;47.450;8.654;2024-03-17T09:23:35;96005.97;;;14.09;76.24
44297;BME280;51842;47.450;8.654;2024-03-17T09:26:10;96008.47;;;14.40;73.47
44297;BME280;51842;47.450;8.654;2024-03-17T09:28:43;96006.81;;;14.44;73.19
44297;BME280;51842;47.450;8.654;2024-03-17T09:31:11;96000.97;;;14.42;68.61
44297;BME280;51842;47.450;8.654;2024-03-17T09:33:38;95998.56;;;14.35;66.87
44297;BME280;51842;47.450;8.654;2024-03-17T09:36:07;95991.00;;;14.52;65.80
44297;BME280;51842;47.450;8.654;2024-03-17T09:38:35;95995.78;;;14.50;65.49
44297;BME280;51842;47.450;8.654;2024-03-17T09:41:02;95988.53;;;14.61;65.83
44297;BME280;51842;47.450;8.654;2024-03-17T09:43:35;95989.78;;;14.69;64.87
44297;BME280;51842;47.450;8.654;2024-03-17T09:46:05;95992.69;;;14.72;65.53
44297;BME280;51842;47.450;8.654;2024-03-17T09:48:32;95995.13;;;14.74;64.45
44297;BME280;51842;47.450;8.654;2024-03-17T09:51:01;95992.63;;;14.83;68.44
44297;BME280;51842;47.450;8.654;2024-03-17T09:53:33;95989.69;;;14.79;64.75
44297;BME280;51842;47.450;8.654;2024-03-17T09:56:18;95993.31;;;14.98;64.75
44297;BME280;51842;47.450;8.654;2024-03-17T09:58:52;95985.63;;;15.16;67.58
44297;BME280;51842;47.450;8.654;2024-03-17T10:01:19;95980.41;;;15.30;66.57
44297;BME280;51842;47.450;8.654;2024-03-17T10:03:51;95984.75;;;14.91;65.05
44297;BME280;51842;47.450;8.654;2024-03-17T10:06:24;95984.31;;;14.84;64.78
44297;BME280;51842;47.450;8.654;2024-03-17T10:08:56;95989.34;;;14.91;64.00
44297;BME280;51842;47.450;8.654;2024-03-17T10:11:41;95973.34;;;14.80;68.18
44297;BME280;51842;47.450;8.654;2024-03-17T10:14:09;95975.56;;;14.73;67.64
44297;BME280;51842;47.450;8.654;2024-03-17T10:16:38;95983.06;;;14.71;69.13
44297;BME280;51842;47.450;8.654;2024-03-17T10:21:46;95991.13;;;14.71;68.13
44297;BME280;51842;47.450;8.654;2024-03-17T10:24:28;95990.44;;;14.55;67.67
44297;BME280;51842;47.450;8.654;2024-03-17T10:27:01;95984.72;;;14.67;67.24
44297;BME280;51842;47.450;8.654;2024-03-17T10:29:31;95993.38;;;14.54;69.32
44297;BME280;51842;47.450;8.654;2024-03-17T10:32:02;95987.75;;;14.50;70.36
44297;BME280;51842;47.450;8.654;2024-03-17T10:34:31;95993.63;;;14.13;71.01
44297;BME280;51842;47.450;8.654;2024-03-17T10:37:15;95998.41;;;14.16;70.63
44297;BME280;51842;47.450;8.654;2024-03-17T10:39:43;96000.63;;;14.04;71.25
44297;BME280;51842;47.450;8.654;2024-03-17T10:42:12;95992.56;;;14.09;73.29
44297;BME280;51842;47.450;8.654;2024-03-17T10:44:42;96003.59;;;14.02;72.91
44297;BME280;51842;47.450;8.654;2024-03-17T10:47:38;95997.22;;;13.93;74.03
44297;BME280;51842;47.450;8.654;2024-03-17T10:50:21;95998.31;;;13.82;76.30
44297;BME280;51842;47.450;8.654;2024-03-17T10:52:50;95997.78;;;13.85;73.75
44297;BME280;51842;47.450;8.654;2024-03-17T10:55:26;95992.16;;;13.92;73.28
44297;BME280;51842;47.450;8.654;2024-03-17T10:57:54;95996.94;;;13.95;74.10
44297;BME280;51842;47.450;8.654;2024-03-17T11:00:25;96005.19;;;14.03;75.24
44297;BME280;51842;47.450;8.654;2024-03-17T11:02:56;95999.81;;;14.03;76.78
44297;BME280;51842;47.450;8.654;2024-03-17T11:05:30;96008.47;;;13.85;73.24
44297;BME280;51842;47.450;8.654;2024-03-17T11:07:59;96013.28;;;13.93;73.35
44297;BME280;51842;47.450;8.654;2024-03-17T11:10:34;96010.13;;;13.81;74.57
44297;BME280;51842;47.450;8.654;2024-03-17T11:13:04;96024.03;;;13.78;75.41
44297;BME280;51842;47.450;8.654;2024-03-17T11:20:40;96026.22;;;13.76;78.08
44297;BME280;51842;47.450;8.654;2024-03-17T11:23:07;96030.44;;;13.87;78.25
44297;BME280;51842;47.450;8.654;2024-03-17T11:28:04;96034.69;;;13.93;76.92
44297;BME280;51842;47.450;8.654;2024-03-17T11:30:48;96032.31;;;13.92;78.77
44297;BME280;51842;47.450;8.654;2024-03-17T11:39:00;96030.63;;;14.06;78.01
44297;BME280;51842;47.450;8.654;2024-03-17T11:41:44;96024.22;;;14.02;75.54
44297;BME280;51842;47.450;8.654;2024-03-17T11:44:31;96010.50;;;14.14;77.31
44297;BME280;51842;47.450;8.654;2024-03-17T11:47:06;96008.88;;;14.12;74.00
44297;BME280;51842;47.450;8.654;2024-03-17T11:49:41;96009.09;;;14.26;73.87
44297;BME280;51842;47.450;8.654;2024-03-17T11:52:16;96002.88;;;14.31;78.50
44297;BME280;51842;47.450;8.654;2024-03-17T11:54:47;96000.13;;;14.41;76.53
44297;BME280;51842;47.450;8.654;2024-03-17T11:57:24;96003.59;;;14.52;75.50
44297;BME280;51842;47.450;8.654;2024-03-17T11:59:53;95999.56;;;14.54;78.67
44297;BME280;51842;47.450;8.654;2024-03-17T12:02:30;95989.78;;;14.69;74.54
44297;BME280;51842;47.450;8.654;2024-03-17T12:05:02;95989.53;;;14.70;72.87
44297;BME280;51842;47.450;8.654;2024-03-17T12:07:31;95984.09;;;14.75;73.08
44297;BME280;51842;47.450;8.654;2024-03-17T12:09:57;95983.03;;;14.76;75.19
44297;BME280;51842;47.450;8.654;2024-03-17T12:12:26;95978.72;;;14.75;75.68
44297;BME280;51842;47.450;8.654;2024-03-17T12:15:02;95984.41;;;14.74;76.67
44297;BME280;51842;47.450;8.654;2024-03-17T12:17:29;95978.16;;;14.84;74.27
44297;BME280;51842;47.450;8.654;2024-03-17T12:19:56;95977.69;;;14.76;72.73
44297;BME280;51842;47.450;8.654;2024-03-17T12:22:24;95977.47;;;14.68;71.39
44297;BME280;51842;47.450;8.654;2024-03-17T12:24:55;95966.13;;;14.76;69.78
44297;BME280;51842;47.450;8.654;2024-03-17T12:27:25;95973.38;;;14.75;69.35
44297;BME280;51842;47.450;8.654;2024-03-17T12:29:54;95980.06;;;14.78;68.87
44297;BME280;51842;47.450;8.654;2024-03-17T12:32:25;95975.00;;;14.76;69.61
44297;BME280;51842;47.450;8.654;2024-03-17T12:34:57;95968.34;;;14.69;68.80
44297;BME280;51842;47.450;8.654;2024-03-17T12:37:28;95965.75;;;14.58;70.30
44297;BME280;51842;47.450;8.654;2024-03-17T12:40:03;95977.44;;;14.28;70.25
44297;BME280;51842;47.450;8.654;2024-03-17T12:42:30;95971.06;;;14.24;69.67
44297;BME280;51842;47.450;8.654;2024-03-17T12:45:00;95969.78;;;14.11;69.70
44297;BME280;51842;47.450;8.654;2024-03-17T12:47:31;95959.91;;;14.07;68.15
44297;BME280;51842;47.450;8.654;2024-03-17T12:50:01;95976.31;;;13.95;68.88
44297;BME280;51842;47.450;8.654;2024-03-17T12:52:34;95961.38;;;13.84;69.73
44297;BME280;51842;47.450;8.654;2024-03-17T12:55:05;95961.72;;;13.67;72.48
44297;BME280;51842;47.450;8.654;2024-03-17T13:00:35;95967.09;;;13.57;74.47
44297;BME280;51842;47.450;8.654;2024-03-17T13:03:08;95964.16;;;13.58;73.67
44297;BME280;51842;47.450;8.654;2024-03-17T13:05:37;95965.75;;;13.59;73.33
44297;BME280;51842;47.450;8.654;2024-03-17T13:08:04;95958.56;;;13.55;71.20
44297;BME280;51842;47.450;8.654;2024-03-17T13:10:31;95960.94;;;13.56;70.17
44297;BME280;51842;47.450;8.654;2024-03-17T13:13:03;95948.13;;;13.53;75.71
44297;BME280;51842;47.450;8.654;2024-03-17T13:15:32;95956.97;;;13.49;74.07
44297;BME280;51842;47.450;8.654;2024-03-17T13:18:01;95952.41;;;13.54;71.98
44297;BME280;51842;47.450;8.654;2024-03-17T13:20:31;95944.88;;;13.61;70.28
44297;BME280;51842;47.450;8.654;2024-03-17T13:22:57;95947.28;;;13.63;71.95
44297;BME280;51842;47.450;8.654;2024-03-17T13:25:28;95942.16;;;13.72;71.51
44297;BME280;51842;47.450;8.654;2024-03-17T13:28:05;95940.00;;;13.79;72.04
44297;BME280;51842;47.450;8.654;2024-03-17T13:30:33;95941.84;;;13.83;72.05